LBGO

Details ICAO LBGO (GOZ)
Name Gorna Oryahovitsa
Region Bulgaria
Timezone Europe/Sofia (UTC+3.0)
Plans Departing 16
Arriving 11
Stats Elevation 285 ft / 87 m (AMSL)
Location 43.151448° 25.712914°
Runways 1
Magnetic Variation 5.382° E
Sunrise 2018-05-25 02:46:14 UTC / 2018-05-25 05:46:14 Local
Sunset 2018-05-25 17:44:47 UTC / 2018-05-25 20:44:47 Local
Advertisement - Login to hide

Runways

ID Width Length Bearing (true) Bearing (mag) Surface Threshold Offset Overrun Length
10 148 ft / 45 m 8,048 ft / 2,453 m 98.10° 92.72° Concrete 656 ft / 200 m 0 ft / 0 m
28 148 ft / 45 m 8,048 ft / 2,453 m 278.12° 272.74° Concrete 656 ft / 200 m 0 ft / 0 m

Map

Weather


0- 5 10 15 20 25 30 35+ Temperature / ° C

Clouds and Precipitation
Forecast for 2018-05-25 06:00 UTC. Updated 4 hours ago

Ground ~20,000 ft ~40,000 ft Winds

METAR

LBGO 250900Z AUTO 33005KT 290V010 9999 NCD 24/15 Q1015 NOSIG

TAF

TAF LBGO 250500Z 2506/2606 VRB04KT 9999 SCT050 TEMPO 2510/2517 VRB18KT 5000 TSRA SCT030CB BKN040 TEMPO 2601/2605 5000 BR

Frequencies

Tower 119.70 MHz TWR
Warning: Do not use this data for real-world aviation or navigation. No guarantee of current accuracy is given.